createdAt,value
2022-12-24T00:01:38.059Z,95831.75
2022-12-24T00:04:07.510Z,95834.47
2022-12-24T00:06:37.302Z,95828.50
2022-12-24T00:09:06.165Z,95835.28
2022-12-24T00:11:34.559Z,95834.47
2022-12-24T00:14:03.413Z,95818.13
2022-12-24T00:16:32.031Z,95827.94
2022-12-24T00:19:00.423Z,95829.03
2022-12-24T00:21:29.670Z,95826.34
2022-12-24T00:23:59.465Z,95804.03
2022-12-24T00:26:28.663Z,95832.28
2022-12-24T00:28:57.321Z,95831.19
2022-12-24T00:31:26.032Z,95849.34
2022-12-24T00:33:55.379Z,95848.78
2022-12-24T00:36:24.245Z,95851.19
2022-12-24T00:38:53.600Z,95857.41
2022-12-24T00:41:27.908Z,95860.94
2022-12-24T00:43:59.206Z,95872.63
2022-12-24T00:46:29.703Z,95862.22
2022-12-24T00:48:58.983Z,95867.94
2022-12-24T00:51:28.054Z,95884.00
2022-12-24T00:53:56.636Z,95879.41
2022-12-24T00:56:27.559Z,95878.25
2022-12-24T00:58:56.029Z,95896.22
2022-12-24T01:01:25.591Z,95892.94
2022-12-24T01:04:15.838Z,95909.75
2022-12-24T01:06:44.333Z,95903.53
2022-12-24T01:09:12.885Z,95898.91
2022-12-24T01:11:43.017Z,95844.34
2022-12-24T01:14:11.968Z,95910.91
2022-12-24T01:16:40.411Z,95916.53
2022-12-24T01:19:09.466Z,95914.69
2022-12-24T01:21:38.047Z,95903.00
2022-12-24T01:24:07.750Z,95903.53
2022-12-24T01:26:36.588Z,95904.03
2022-12-24T01:29:06.859Z,95903.47
2022-12-24T01:31:35.681Z,95904.25
2022-12-24T01:34:05.152Z,95911.34
2022-12-24T01:36:33.576Z,95915.38
2022-12-24T01:39:02.350Z,95922.75
2022-12-24T01:41:49.709Z,95929.78
2022-12-24T01:44:23.502Z,95935.22
2022-12-24T01:46:55.598Z,95942.25
2022-12-24T01:49:25.105Z,95940.38
2022-12-24T01:51:57.462Z,95945.53
2022-12-24T01:54:30.910Z,95947.19
2022-12-24T01:57:03.858Z,95946.88
2022-12-24T01:59:34.321Z,95956.88
2022-12-24T02:02:04.152Z,95962.31
2022-12-24T02:04:37.041Z,95954.44
2022-12-24T02:07:06.199Z,95959.53
2022-12-24T02:09:35.685Z,95952.47
2022-12-24T02:12:05.983Z,95962.75
2022-12-24T02:14:37.389Z,95965.47
2022-12-24T02:17:14.415Z,95972.13
2022-12-24T02:20:30.709Z,95971.81
2022-12-24T02:23:10.849Z,95979.06
2022-12-24T02:26:09.475Z,95971.44
2022-12-24T02:29:00.708Z,95972.25
2022-12-24T02:31:38.146Z,95983.63
2022-12-24T02:34:16.477Z,95989.06
2022-12-24T02:36:49.561Z,95992.28
2022-12-24T02:39:24.405Z,95987.88
2022-12-24T02:42:07.160Z,95989.19
2022-12-24T02:44:42.463Z,95997.94
2022-12-24T02:47:14.132Z,95995.25
2022-12-24T02:49:46.871Z,96004.66
2022-12-24T02:52:36.099Z,96000.91
2022-12-24T02:55:12.724Z,95994.09
2022-12-24T02:57:55.620Z,95997.56
2022-12-24T03:00:26.530Z,96014.63
2022-12-24T03:03:13.579Z,96010.50
2022-12-24T03:05:47.840Z,96012.19
2022-12-24T03:08:22.676Z,96033.25
2022-12-24T03:10:57.178Z,96032.16
2022-12-24T03:13:29.153Z,96027.78
2022-12-24T03:15:58.393Z,96037.38
2022-12-24T03:18:30.814Z,96034.66
2022-12-24T03:21:03.478Z,96056.06
2022-12-24T03:23:32.003Z,96055.50
2022-12-24T03:26:03.122Z,96064.69
2022-12-24T03:28:32.125Z,96055.91
2022-12-24T03:31:02.992Z,96052.09
2022-12-24T03:33:33.107Z,96040.66
2022-12-24T03:36:03.831Z,96045.34
2022-12-24T03:38:32.948Z,96055.09
2022-12-24T03:41:01.294Z,96062.72
2022-12-24T03:43:30.774Z,96053.94
2022-12-24T03:45:59.665Z,96074.34
2022-12-24T03:48:32.729Z,96087.56
2022-12-24T03:51:03.122Z,96081.66
2022-12-24T03:53:31.681Z,96070.13
2022-12-24T03:56:00.473Z,96089.13
2022-12-24T03:58:28.802Z,96080.28
2022-12-24T04:00:57.705Z,96085.19
2022-12-24T04:03:26.466Z,96107.59
2022-12-24T04:06:04.468Z,96103.34
2022-12-24T04:08:33.252Z,96105.72
2022-12-24T04:11:07.758Z,96115.16
2022-12-24T04:13:39.010Z,96113.88
2022-12-24T04:16:09.544Z,96111.94
2022-12-24T04:18:39.236Z,96130.50
2022-12-24T04:21:09.865Z,96115.06
2022-12-24T04:23:40.509Z,96125.75
2022-12-24T04:26:11.521Z,96109.66
2022-12-24T04:28:41.023Z,96109.41
2022-12-24T04:31:13.953Z,96100.38
2022-12-24T04:33:42.386Z,96094.41
2022-12-24T04:36:15.000Z,96101.94
2022-12-24T04:38:44.136Z,96105.09
2022-12-24T04:41:20.826Z,96098.94
2022-12-24T04:43:54.006Z,96111.50
2022-12-24T04:46:24.512Z,96110.09
2022-12-24T04:48:54.866Z,96111.50
2022-12-24T04:51:26.054Z,96113.03
2022-12-24T04:53:54.773Z,96117.88
2022-12-24T04:56:26.212Z,96127.25
2022-12-24T04:58:55.251Z,96120.00
2022-12-24T05:01:26.917Z,96116.75
2022-12-24T05:03:55.546Z,96144.78
2022-12-24T05:06:27.916Z,96149.34
2022-12-24T05:08:57.251Z,96145.16
2022-12-24T05:11:26.416Z,96157.34
2022-12-24T05:13:55.351Z,96160.88
2022-12-24T05:16:24.819Z,96140.13
2022-12-24T05:18:54.569Z,96161.47
2022-12-24T05:21:25.783Z,96155.00
2022-12-24T05:24:13.098Z,96160.88
2022-12-24T05:26:43.437Z,96162.44
2022-12-24T05:29:13.251Z,96153.75
2022-12-24T05:31:43.850Z,96159.97
2022-12-24T05:34:12.976Z,96163.50
2022-12-24T05:36:44.598Z,96156.44
2022-12-24T05:39:16.384Z,96158.28
2022-12-24T05:41:45.536Z,96147.16
2022-12-24T05:44:14.829Z,96161.72
2022-12-24T05:46:43.661Z,96164.44
2022-12-24T05:49:13.206Z,96173.59
2022-12-24T05:51:43.393Z,96176.31
2022-12-24T05:54:12.482Z,96167.00
2022-12-24T05:56:40.851Z,96178.41
2022-12-24T05:59:09.300Z,96164.44
2022-12-24T06:01:37.735Z,96185.47
2022-12-24T06:04:07.021Z,96181.47
2022-12-24T06:06:35.486Z,96179.22
2022-12-24T06:09:06.396Z,96169.47
2022-12-24T06:11:35.423Z,96160.22
2022-12-24T06:14:03.779Z,96172.78
2022-12-24T06:16:32.933Z,96179.00
2022-12-24T06:19:01.825Z,96188.75
2022-12-24T06:21:30.249Z,96177.69
2022-12-24T06:23:59.422Z,96174.19
2022-12-24T06:26:29.159Z,96194.47
2022-12-24T06:28:58.072Z,96185.31
2022-12-24T06:31:26.960Z,96190.50
2022-12-24T06:33:55.361Z,96182.28
2022-12-24T06:36:25.673Z,96200.72
2022-12-24T06:38:55.366Z,96216.91
2022-12-24T06:41:25.208Z,96225.63
2022-12-24T06:43:55.446Z,96216.47
2022-12-24T06:46:23.862Z,96228.91
2022-12-24T06:48:53.069Z,96231.25
2022-12-24T06:51:21.850Z,96235.81
2022-12-24T06:53:51.582Z,96245.25
2022-12-24T06:56:22.276Z,96234.56
2022-12-24T06:58:51.219Z,96233.13
2022-12-24T07:01:22.302Z,96236.19
2022-12-24T07:03:51.162Z,96227.84
2022-12-24T07:06:25.457Z,96250.28
2022-12-24T07:08:54.742Z,96253.34
2022-12-24T07:11:24.731Z,96231.84
2022-12-24T07:13:54.079Z,96254.16
2022-12-24T07:16:23.906Z,96261.09
2022-12-24T07:18:52.368Z,96262.38
2022-12-24T07:21:21.645Z,96249.22
2022-12-24T07:23:50.043Z,96277.66
2022-12-24T07:26:18.396Z,96279.16
2022-12-24T07:28:47.536Z,96291.81
2022-12-24T07:31:15.939Z,96289.97
2022-12-24T07:33:46.063Z,96305.50
2022-12-24T07:36:19.060Z,96311.72
2022-12-24T07:38:47.484Z,96312.44
2022-12-24T07:41:16.295Z,96317.84
2022-12-24T07:43:44.761Z,96304.91
2022-12-24T07:46:14.024Z,96312.19
2022-12-24T07:48:42.421Z,96297.03
2022-12-24T07:51:12.217Z,96317.13
2022-12-24T07:53:47.253Z,96322.78
2022-12-24T07:56:16.122Z,96327.81
2022-12-24T07:58:44.677Z,96343.84
2022-12-24T08:01:13.180Z,96350.28
2022-12-24T08:03:42.421Z,96353.59
2022-12-24T08:06:12.817Z,96347.94
2022-12-24T08:08:41.706Z,96351.94
2022-12-24T08:11:10.065Z,96347.81
2022-12-24T08:13:38.843Z,96357.34
2022-12-24T08:16:08.196Z,96372.13
2022-12-24T08:18:38.170Z,96380.72
2022-12-24T08:21:08.518Z,96371.44
2022-12-24T08:23:38.986Z,96376.50
2022-12-24T08:26:08.528Z,96352.16
2022-12-24T08:28:38.525Z,96354.03
2022-12-24T08:31:07.575Z,96360.38
2022-12-24T08:33:36.744Z,96348.88
2022-12-24T08:36:05.726Z,96366.38
2022-12-24T08:38:34.739Z,96367.56
2022-12-24T08:41:04.603Z,96371.44
2022-12-24T08:43:33.613Z,96379.66
2022-12-24T08:46:05.016Z,96372.97
2022-12-24T08:48:35.199Z,96358.16
2022-12-24T08:51:09.037Z,96377.66
2022-12-24T08:53:37.660Z,96372.59
2022-12-24T08:56:10.625Z,96382.97
2022-12-24T08:58:39.321Z,96380.03
2022-12-24T09:01:13.637Z,96387.19
2022-12-24T09:03:42.796Z,96381.66
2022-12-24T09:06:12.362Z,96389.06
2022-12-24T09:08:41.095Z,96389.88
2022-12-24T09:11:14.786Z,96392.47
2022-12-24T09:13:44.632Z,96385.78
2022-12-24T09:16:13.816Z,96390.94
2022-12-24T09:18:43.109Z,96395.53
2022-12-24T09:21:14.416Z,96404.09
2022-12-24T09:23:45.179Z,96408.25
2022-12-24T09:26:16.891Z,96401.06
2022-12-24T09:28:46.164Z,96409.75
2022-12-24T09:31:15.537Z,96426.34
2022-12-24T09:33:47.229Z,96432.84
2022-12-24T09:36:16.528Z,96427.63
2022-12-24T09:38:45.003Z,96426.00
2022-12-24T09:41:24.219Z,96429.16
2022-12-24T09:43:57.738Z,96430.16
2022-12-24T09:46:29.561Z,96436.22
2022-12-24T09:49:03.344Z,96438.31
2022-12-24T09:51:38.077Z,96433.66
2022-12-24T09:54:14.589Z,96428.38
2022-12-24T09:56:46.793Z,96429.19
2022-12-24T09:59:18.035Z,96427.28
2022-12-24T10:01:46.479Z,96413.78
2022-12-24T10:04:18.549Z,96433.66
2022-12-24T10:06:55.153Z,96434.25
2022-12-24T10:09:33.933Z,96431.06
2022-12-24T10:12:12.116Z,96431.84
2022-12-24T10:14:55.446Z,96439.75
2022-12-24T10:17:38.013Z,96438.31
2022-12-24T10:20:26.607Z,96447.47
2022-12-24T10:23:03.430Z,96457.81
2022-12-24T10:25:39.072Z,96460.25
2022-12-24T10:28:16.551Z,96460.53
2022-12-24T10:30:48.556Z,96453.22
2022-12-24T10:33:21.950Z,96466.78
2022-12-24T10:35:55.903Z,96450.34
2022-12-24T10:38:25.300Z,96465.25
2022-12-24T10:40:56.036Z,96436.41
2022-12-24T10:43:30.291Z,96456.56
2022-12-24T10:46:02.563Z,96456.28
2022-12-24T10:48:37.692Z,96460.88
2022-12-24T10:51:14.770Z,96452.75
2022-12-24T10:53:49.071Z,96452.41
2022-12-24T10:56:20.097Z,96454.16
2022-12-24T10:58:56.289Z,96454.22
2022-12-24T11:01:45.340Z,96470.75
2022-12-24T11:04:18.675Z,96464.06
2022-12-24T11:06:54.697Z,96464.50
2022-12-24T11:09:25.723Z,96465.97
2022-12-24T11:11:57.089Z,96473.03
2022-12-24T11:14:33.877Z,96468.94
2022-12-24T11:17:02.914Z,96457.06
2022-12-24T11:19:34.165Z,96457.13
2022-12-24T11:22:06.025Z,96452.91
2022-12-24T11:24:36.650Z,96460.63
2022-12-24T11:27:25.207Z,96459.69
2022-12-24T11:30:20.177Z,96464.78
2022-12-24T11:32:50.369Z,96471.97
2022-12-24T11:35:23.146Z,96463.63
2022-12-24T11:38:11.585Z,96467.22
2022-12-24T11:40:43.278Z,96473.84
2022-12-24T11:43:17.496Z,96467.28
2022-12-24T11:45:55.930Z,96466.19
2022-12-24T11:48:30.580Z,96468.72
2022-12-24T11:51:01.411Z,96457.00
2022-12-24T11:53:41.373Z,96458.13
2022-12-24T11:56:17.008Z,96451.31
2022-12-24T11:58:49.290Z,96465.22
2022-12-24T12:01:25.991Z,96463.25
2022-12-24T12:03:58.632Z,96445.19
2022-12-24T12:06:34.148Z,96455.34
2022-12-24T12:09:06.638Z,96444.91
2022-12-24T12:11:37.032Z,96455.47
2022-12-24T12:14:07.145Z,96456.91
2022-12-24T12:17:04.094Z,96464.88
2022-12-24T12:19:39.447Z,96454.41
2022-12-24T12:22:19.305Z,96449.88
2022-12-24T12:24:52.824Z,96452.16
2022-12-24T12:27:28.474Z,96441.50
2022-12-24T12:30:01.435Z,96465.34
2022-12-24T12:32:50.038Z,96454.59
2022-12-24T12:35:26.404Z,96461.22
2022-12-24T12:38:01.681Z,96481.69
2022-12-24T12:40:44.828Z,96481.75
2022-12-24T12:43:25.525Z,96483.97
2022-12-24T12:45:59.638Z,96490.56
2022-12-24T12:48:50.479Z,96499.84
2022-12-24T12:51:26.797Z,96486.91
2022-12-24T12:54:21.046Z,96475.13
2022-12-24T12:56:55.547Z,96479.38
2022-12-24T12:59:32.136Z,96491.50
2022-12-24T13:02:15.547Z,96485.94
2022-12-24T13:05:15.629Z,96480.03
2022-12-24T13:08:00.844Z,96478.69
2022-12-24T13:10:55.062Z,96482.66
2022-12-24T13:13:40.506Z,96484.13
2022-12-24T13:16:33.685Z,96476.66
2022-12-24T13:19:13.215Z,96492.84
2022-12-24T13:21:46.923Z,96481.94
2022-12-24T13:24:19.053Z,96491.13
2022-12-24T13:27:02.704Z,96501.75
2022-12-24T13:29:32.580Z,96499.84
2022-12-24T13:32:34.878Z,96508.41
2022-12-24T13:35:05.656Z,96492.53
2022-12-24T13:37:36.147Z,96512.09
2022-12-24T13:40:18.108Z,96517.47
2022-12-24T13:43:07.147Z,96511.94
2022-12-24T13:46:00.070Z,96523.94
2022-12-24T13:48:35.383Z,96518.91
2022-12-24T13:51:21.105Z,96524.50
2022-12-24T13:53:58.584Z,96532.91
2022-12-24T13:56:28.966Z,96528.94
2022-12-24T13:59:13.562Z,96536.13
2022-12-24T14:01:44.460Z,96537.09
2022-12-24T14:04:26.463Z,96533.13
2022-12-24T14:06:58.329Z,96535.78
2022-12-24T14:09:30.811Z,96528.81
2022-12-24T14:12:18.033Z,96527.63
2022-12-24T14:14:48.309Z,96530.88
2022-12-24T14:17:24.309Z,96530.38
2022-12-24T14:19:55.533Z,96516.72
2022-12-24T14:22:33.062Z,96531.72
2022-12-24T14:25:05.724Z,96524.75
2022-12-24T14:27:39.803Z,96532.88
2022-12-24T14:30:17.774Z,96533.81
2022-12-24T14:32:47.362Z,96531.50
2022-12-24T14:35:18.824Z,96524.66
2022-12-24T14:37:52.952Z,96521.13
2022-12-24T14:40:27.352Z,96517.84
2022-12-24T14:43:02.695Z,96507.84
2022-12-24T14:45:38.641Z,96529.19
2022-12-24T14:48:18.248Z,96534.84
2022-12-24T14:50:59.465Z,96532.63
2022-12-24T14:53:42.872Z,96542.06
2022-12-24T14:56:16.496Z,96552.56
2022-12-24T14:58:45.700Z,96557.53
2022-12-24T15:01:24.109Z,96553.91
2022-12-24T15:04:05.051Z,96562.75
2022-12-24T15:06:37.280Z,96554.78
2022-12-24T15:09:07.021Z,96561.72
2022-12-24T15:11:37.495Z,96572.81
2022-12-24T15:14:07.427Z,96584.47
2022-12-24T15:16:37.620Z,96574.25
2022-12-24T15:19:08.845Z,96539.66
2022-12-24T15:21:44.144Z,96549.63
2022-12-24T15:24:25.669Z,96560.81
2022-12-24T15:26:56.443Z,96557.75
2022-12-24T15:29:27.861Z,96551.31
2022-12-24T15:31:58.038Z,96535.63
2022-12-24T15:34:31.642Z,96553.53
2022-12-24T15:37:15.536Z,96564.34
2022-12-24T15:39:44.942Z,96570.25
2022-12-24T15:42:20.146Z,96570.16
2022-12-24T15:45:00.222Z,96566.72
2022-12-24T15:47:37.760Z,96559.91
2022-12-24T15:50:16.343Z,96552.25
2022-12-24T15:52:45.336Z,96553.66
2022-12-24T15:55:28.892Z,96559.22
2022-12-24T15:57:58.649Z,96558.84
2022-12-24T16:00:31.193Z,96563.91
2022-12-24T16:03:12.808Z,96568.97
2022-12-24T16:05:41.306Z,96536.72
2022-12-24T16:08:40.527Z,96574.63
2022-12-24T16:11:17.450Z,96580.03
2022-12-24T16:14:02.136Z,96571.44
2022-12-24T16:16:36.540Z,96571.66
2022-12-24T16:19:07.228Z,96568.63
2022-12-24T16:21:39.944Z,96575.69
2022-12-24T16:24:16.689Z,96580.03
2022-12-24T16:26:46.085Z,96582.50
2022-12-24T16:29:17.023Z,96581.22
2022-12-24T16:31:48.760Z,96584.50
2022-12-24T16:34:18.705Z,96587.78
2022-12-24T16:36:48.020Z,96588.84
2022-12-24T16:39:27.217Z,96604.03
2022-12-24T16:42:15.083Z,96580.94
2022-12-24T16:44:46.278Z,96602.03
2022-12-24T16:47:17.154Z,96611.22
2022-12-24T16:49:48.028Z,96592.97
2022-12-24T16:52:22.205Z,96613.44
2022-12-24T16:54:51.994Z,96589.91
2022-12-24T16:57:20.447Z,96623.47
2022-12-24T16:59:53.886Z,96627.09
2022-12-24T17:02:26.443Z,96622.66
2022-12-24T17:04:55.992Z,96618.16
2022-12-24T17:07:24.800Z,96627.94
2022-12-24T17:09:54.188Z,96627.13
2022-12-24T17:12:22.647Z,96625.81
2022-12-24T17:14:53.234Z,96626.25
2022-12-24T17:17:25.448Z,96625.91
2022-12-24T17:19:54.294Z,96631.78
2022-12-24T17:22:23.545Z,96636.59
2022-12-24T17:24:54.401Z,96640.97
2022-12-24T17:27:23.224Z,96633.53
2022-12-24T17:29:53.413Z,96642.94
2022-12-24T17:32:21.973Z,96639.00
2022-12-24T17:34:50.637Z,96624.63
2022-12-24T17:37:19.040Z,96631.94
2022-12-24T17:39:48.210Z,96630.50
2022-12-24T17:42:16.654Z,96628.84
2022-12-24T17:44:45.134Z,96609.66
2022-12-24T17:47:15.242Z,96633.00
2022-12-24T17:49:43.696Z,96632.59
2022-12-24T17:52:13.063Z,96631.44
2022-12-24T17:54:41.444Z,96640.81
2022-12-24T17:57:10.181Z,96658.69
2022-12-24T17:59:39.201Z,96652.09
2022-12-24T18:02:07.877Z,96655.50
2022-12-24T18:04:38.065Z,96655.06
2022-12-24T18:07:06.796Z,96655.25
2022-12-24T18:09:35.463Z,96654.81
2022-12-24T18:12:04.289Z,96630.81
2022-12-24T18:14:32.649Z,96651.28
2022-12-24T18:17:01.014Z,96642.94
2022-12-24T18:19:29.393Z,96638.69
2022-12-24T18:21:59.074Z,96646.38
2022-12-24T18:24:27.538Z,96653.66
2022-12-24T18:26:56.976Z,96662.00
2022-12-24T18:29:25.388Z,96665.97
2022-12-24T18:31:54.246Z,96671.88
2022-12-24T18:34:22.761Z,96678.09
2022-12-24T18:36:55.161Z,96675.63
2022-12-24T18:39:26.034Z,96647.13
2022-12-24T18:41:54.374Z,96648.94
2022-12-24T18:44:25.505Z,96657.88
2022-12-24T18:46:55.148Z,96659.00
2022-12-24T18:49:24.106Z,96673.50
2022-12-24T18:51:52.866Z,96679.50
2022-12-24T18:54:21.423Z,96679.88
2022-12-24T18:56:53.298Z,96676.56
2022-12-24T18:59:22.655Z,96677.63
2022-12-24T19:01:52.880Z,96673.28
2022-12-24T19:04:21.949Z,96660.66
2022-12-24T19:06:53.208Z,96673.50
2022-12-24T19:09:22.695Z,96675.00
2022-12-24T19:11:52.491Z,96676.06
2022-12-24T19:14:21.138Z,96676.88
2022-12-24T19:16:50.163Z,96668.84
2022-12-24T19:19:23.874Z,96678.53
2022-12-24T19:21:52.768Z,96689.75
2022-12-24T19:24:21.518Z,96697.84
2022-12-24T19:26:49.901Z,96689.75
2022-12-24T19:29:20.065Z,96695.16
2022-12-24T19:31:48.753Z,96691.84
2022-12-24T19:34:17.204Z,96696.78
2022-12-24T19:36:48.483Z,96690.22
2022-12-24T19:39:17.250Z,96697.63
2022-12-24T19:41:46.425Z,96697.03
2022-12-24T19:44:14.805Z,96695.63
2022-12-24T19:46:44.501Z,96687.34
2022-12-24T19:49:13.672Z,96692.44
2022-12-24T19:51:42.000Z,96699.25
2022-12-24T19:54:18.607Z,96695.00
2022-12-24T19:56:47.564Z,96693.44
2022-12-24T19:59:16.834Z,96692.56
2022-12-24T20:01:47.137Z,96690.97
2022-12-24T20:04:18.611Z,96669.53
2022-12-24T20:06:47.062Z,96690.13
2022-12-24T20:09:15.450Z,96684.38
2022-12-24T20:11:44.210Z,96670.47
2022-12-24T20:14:13.209Z,96686.91
2022-12-24T20:16:42.412Z,96688.97
2022-12-24T20:19:15.505Z,96690.97
2022-12-24T20:21:43.895Z,96678.75
2022-12-24T20:24:12.755Z,96700.69
2022-12-24T20:26:41.121Z,96699.97
2022-12-24T20:29:13.286Z,96698.91
2022-12-24T20:31:41.952Z,96708.47
2022-12-24T20:34:13.136Z,96711.53
2022-12-24T20:36:42.078Z,96709.41
2022-12-24T20:39:12.429Z,96699.22
2022-12-24T20:41:41.487Z,96681.44
2022-12-24T20:44:11.841Z,96698.47
2022-12-24T20:46:40.270Z,96705.94
2022-12-24T20:49:11.614Z,96692.63
2022-12-24T20:51:41.345Z,96707.72
2022-12-24T20:54:12.358Z,96694.75
2022-12-24T20:56:41.218Z,96702.31
2022-12-24T20:59:09.523Z,96713.34
2022-12-24T21:01:39.134Z,96718.75
2022-12-24T21:04:10.282Z,96723.72
2022-12-24T21:06:39.185Z,96693.09
2022-12-24T21:09:08.945Z,96714.41
2022-12-24T21:11:55.726Z,96702.47
2022-12-24T21:14:25.774Z,96713.66
2022-12-24T21:16:56.071Z,96725.66
2022-12-24T21:19:26.152Z,96727.09
2022-12-24T21:21:55.339Z,96724.16
2022-12-24T21:24:25.062Z,96723.13
2022-12-24T21:26:54.226Z,96719.34
2022-12-24T21:29:22.572Z,96710.81
2022-12-24T21:31:51.570Z,96725.50
2022-12-24T21:34:19.932Z,96702.78
2022-12-24T21:36:48.895Z,96724.25
2022-12-24T21:39:17.383Z,96729.44
2022-12-24T21:41:47.091Z,96722.81
2022-12-24T21:44:15.746Z,96734.22
2022-12-24T21:46:44.565Z,96727.78
2022-12-24T21:49:30.243Z,96730.25
2022-12-24T21:52:00.263Z,96728.59
2022-12-24T21:54:28.688Z,96727.97
2022-12-24T21:57:18.759Z,96721.63
2022-12-24T21:59:47.402Z,96734.44
2022-12-24T22:02:17.447Z,96739.47
2022-12-24T22:04:46.188Z,96737.41
2022-12-24T22:07:39.360Z,96733.00
2022-12-24T22:10:27.409Z,96729.56
2022-12-24T22:12:59.024Z,96722.50
2022-12-24T22:15:28.936Z,96725.44
2022-12-24T22:17:57.342Z,96722.50
2022-12-24T22:20:26.584Z,96719.97
2022-12-24T22:22:55.492Z,96711.75
2022-12-24T22:25:23.901Z,96739.19
2022-12-24T22:27:53.097Z,96742.72
2022-12-24T22:30:22.931Z,96739.41
2022-12-24T22:32:51.408Z,96739.41
2022-12-24T22:35:20.434Z,96731.38
2022-12-24T22:37:51.945Z,96745.13
2022-12-24T22:40:22.962Z,96738.50
2022-12-24T22:42:51.349Z,96739.78
2022-12-24T22:45:22.392Z,96734.69
2022-12-24T22:47:52.599Z,96751.78
2022-12-24T22:50:20.995Z,96752.63
2022-12-24T22:52:49.359Z,96763.44
2022-12-24T22:55:17.975Z,96755.53
2022-12-24T22:57:46.365Z,96759.91
2022-12-24T23:00:36.990Z,96762.59
2022-12-24T23:03:07.697Z,96750.59
2022-12-24T23:05:36.365Z,96754.78
2022-12-24T23:08:05.162Z,96735.19
2022-12-24T23:10:34.542Z,96749.84
2022-12-24T23:13:21.004Z,96746.53
2022-12-24T23:15:49.726Z,96738.28
2022-12-24T23:18:20.593Z,96744.78
2022-12-24T23:20:48.903Z,96740.66
2022-12-24T23:23:18.261Z,96736.69
2022-12-24T23:25:47.159Z,96740.22
2022-12-24T23:28:15.974Z,96737.72
2022-12-24T23:30:44.859Z,96731.34
2022-12-24T23:33:13.185Z,96727.19
2022-12-24T23:35:43.337Z,96715.22
2022-12-24T23:38:12.195Z,96726.50
2022-12-24T23:40:42.584Z,96717.03
2022-12-24T23:43:11.679Z,96687.13
2022-12-24T23:45:40.067Z,96719.41
2022-12-24T23:48:09.302Z,96716.72
2022-12-24T23:50:37.969Z,96715.91
2022-12-24T23:53:08.315Z,96692.06
2022-12-24T23:55:38.281Z,96717.25
2022-12-24T23:58:07.953Z,96717.44
